sensor_id;sensor_type;location;lat;lon;timestamp;P1;durP1;ratioP1;P2;durP2;ratioP2
34146;SDS011;20423;49.448;9.056;2022-12-10T00:00:17;50.22;;;22.73;;
34146;SDS011;20423;49.448;9.056;2022-12-10T00:02:43;53.58;;;22.88;;
34146;SDS011;20423;49.448;9.056;2022-12-10T00:05:08;57.17;;;22.40;;
34146;SDS011;20423;49.448;9.056;2022-12-10T00:07:34;50.45;;;22.90;;
34146;SDS011;20423;49.448;9.056;2022-12-10T00:10:00;50.60;;;22.40;;
34146;SDS011;20423;49.448;9.056;2022-12-10T00:12:25;47.63;;;20.90;;
34146;SDS011;20423;49.448;9.056;2022-12-10T00:14:51;53.17;;;24.10;;
34146;SDS011;20423;49.448;9.056;2022-12-10T00:17:17;53.13;;;24.15;;
34146;SDS011;20423;49.448;9.056;2022-12-10T00:19:43;53.97;;;23.05;;
34146;SDS011;20423;49.448;9.056;2022-12-10T00:22:08;52.42;;;23.92;;
34146;SDS011;20423;49.448;9.056;2022-12-10T00:24:34;56.35;;;22.58;;
34146;SDS011;20423;49.448;9.056;2022-12-10T00:27:00;57.65;;;26.02;;
34146;SDS011;20423;49.448;9.056;2022-12-10T00:29:25;56.45;;;25.08;;
34146;SDS011;20423;49.448;9.056;2022-12-10T00:31:51;54.70;;;24.63;;
34146;SDS011;20423;49.448;9.056;2022-12-10T00:34:16;52.20;;;24.58;;
34146;SDS011;20423;49.448;9.056;2022-12-10T00:36:44;55.67;;;24.13;;
34146;SDS011;20423;49.448;9.056;2022-12-10T00:39:13;61.10;;;25.48;;
34146;SDS011;20423;49.448;9.056;2022-12-10T00:41:42;54.22;;;24.45;;
34146;SDS011;20423;49.448;9.056;2022-12-10T00:44:08;56.88;;;26.10;;
34146;SDS011;20423;49.448;9.056;2022-12-10T00:46:34;51.30;;;24.67;;
34146;SDS011;20423;49.448;9.056;2022-12-10T00:49:00;52.40;;;24.10;;
34146;SDS011;20423;49.448;9.056;2022-12-10T00:51:26;52.83;;;24.73;;
34146;SDS011;20423;49.448;9.056;2022-12-10T00:53:54;53.75;;;24.77;;
34146;SDS011;20423;49.448;9.056;2022-12-10T00:56:40;54.13;;;24.60;;
34146;SDS011;20423;49.448;9.056;2022-12-10T00:59:06;62.63;;;26.98;;
34146;SDS011;20423;49.448;9.056;2022-12-10T01:01:33;86.60;;;38.65;;
34146;SDS011;20423;49.448;9.056;2022-12-10T01:04:03;57.10;;;26.23;;
34146;SDS011;20423;49.448;9.056;2022-12-10T01:06:32;59.38;;;26.52;;
34146;SDS011;20423;49.448;9.056;2022-12-10T01:09:06;58.28;;;25.25;;
34146;SDS011;20423;49.448;9.056;2022-12-10T01:11:35;58.42;;;25.98;;
34146;SDS011;20423;49.448;9.056;2022-12-10T01:14:04;53.70;;;24.48;;
34146;SDS011;20423;49.448;9.056;2022-12-10T01:16:31;53.22;;;25.02;;
34146;SDS011;20423;49.448;9.056;2022-12-10T01:18:57;54.50;;;24.20;;
34146;SDS011;20423;49.448;9.056;2022-12-10T01:21:24;55.40;;;24.23;;
34146;SDS011;20423;49.448;9.056;2022-12-10T01:23:51;55.05;;;23.17;;
34146;SDS011;20423;49.448;9.056;2022-12-10T01:26:19;53.72;;;23.50;;
34146;SDS011;20423;49.448;9.056;2022-12-10T01:28:47;52.58;;;23.50;;
34146;SDS011;20423;49.448;9.056;2022-12-10T01:31:14;49.42;;;22.50;;
34146;SDS011;20423;49.448;9.056;2022-12-10T01:33:52;47.53;;;22.13;;
34146;SDS011;20423;49.448;9.056;2022-12-10T01:36:22;58.85;;;24.70;;
34146;SDS011;20423;49.448;9.056;2022-12-10T01:38:49;50.30;;;23.38;;
34146;SDS011;20423;49.448;9.056;2022-12-10T01:41:20;53.10;;;23.70;;
34146;SDS011;20423;49.448;9.056;2022-12-10T01:43:57;52.53;;;25.23;;
34146;SDS011;20423;49.448;9.056;2022-12-10T01:46:33;55.30;;;23.98;;
34146;SDS011;20423;49.448;9.056;2022-12-10T01:49:04;53.47;;;24.75;;
34146;SDS011;20423;49.448;9.056;2022-12-10T01:51:34;65.90;;;25.20;;
34146;SDS011;20423;49.448;9.056;2022-12-10T01:54:02;55.60;;;25.30;;
34146;SDS011;20423;49.448;9.056;2022-12-10T01:56:29;57.13;;;23.92;;
34146;SDS011;20423;49.448;9.056;2022-12-10T01:58:58;53.92;;;24.38;;
34146;SDS011;20423;49.448;9.056;2022-12-10T02:01:38;54.30;;;25.10;;
34146;SDS011;20423;49.448;9.056;2022-12-10T02:04:50;56.03;;;23.65;;
34146;SDS011;20423;49.448;9.056;2022-12-10T02:07:27;59.65;;;25.88;;
34146;SDS011;20423;49.448;9.056;2022-12-10T02:10:08;52.85;;;23.35;;
34146;SDS011;20423;49.448;9.056;2022-12-10T02:12:47;55.35;;;24.45;;
34146;SDS011;20423;49.448;9.056;2022-12-10T02:15:27;57.58;;;25.33;;
34146;SDS011;20423;49.448;9.056;2022-12-10T02:18:20;55.92;;;24.90;;
34146;SDS011;20423;49.448;9.056;2022-12-10T02:20:55;59.13;;;25.88;;
34146;SDS011;20423;49.448;9.056;2022-12-10T02:23:25;58.72;;;26.38;;
34146;SDS011;20423;49.448;9.056;2022-12-10T02:25:59;53.97;;;25.27;;
34146;SDS011;20423;49.448;9.056;2022-12-10T02:28:32;58.25;;;25.25;;
34146;SDS011;20423;49.448;9.056;2022-12-10T02:31:07;57.75;;;24.67;;
34146;SDS011;20423;49.448;9.056;2022-12-10T02:33:38;58.17;;;26.98;;
34146;SDS011;20423;49.448;9.056;2022-12-10T02:36:08;61.20;;;25.80;;
34146;SDS011;20423;49.448;9.056;2022-12-10T02:38:36;66.53;;;28.00;;
34146;SDS011;20423;49.448;9.056;2022-12-10T02:41:05;59.40;;;27.02;;
34146;SDS011;20423;49.448;9.056;2022-12-10T02:43:35;103.18;;;38.05;;
34146;SDS011;20423;49.448;9.056;2022-12-10T02:46:02;109.38;;;38.00;;
34146;SDS011;20423;49.448;9.056;2022-12-10T02:48:30;61.80;;;28.95;;
34146;SDS011;20423;49.448;9.056;2022-12-10T02:50:57;59.45;;;26.88;;
34146;SDS011;20423;49.448;9.056;2022-12-10T02:53:23;68.15;;;28.67;;
34146;SDS011;20423;49.448;9.056;2022-12-10T02:58:48;68.95;;;28.88;;
34146;SDS011;20423;49.448;9.056;2022-12-10T03:06:57;58.38;;;26.02;;
34146;SDS011;20423;49.448;9.056;2022-12-10T03:09:34;57.50;;;25.83;;
34146;SDS011;20423;49.448;9.056;2022-12-10T03:12:18;57.70;;;24.70;;
34146;SDS011;20423;49.448;9.056;2022-12-10T03:14:57;59.58;;;25.92;;
34146;SDS011;20423;49.448;9.056;2022-12-10T03:19:53;50.90;;;24.20;;
34146;SDS011;20423;49.448;9.056;2022-12-10T03:22:20;54.85;;;25.75;;
34146;SDS011;20423;49.448;9.056;2022-12-10T03:24:46;56.88;;;25.48;;
34146;SDS011;20423;49.448;9.056;2022-12-10T03:27:13;52.42;;;23.67;;
34146;SDS011;20423;49.448;9.056;2022-12-10T03:29:45;53.17;;;23.20;;
34146;SDS011;20423;49.448;9.056;2022-12-10T03:32:20;51.63;;;23.92;;
34146;SDS011;20423;49.448;9.056;2022-12-10T03:34:48;53.67;;;22.80;;
34146;SDS011;20423;49.448;9.056;2022-12-10T03:37:16;59.97;;;24.73;;
34146;SDS011;20423;49.448;9.056;2022-12-10T03:39:42;55.92;;;24.27;;
34146;SDS011;20423;49.448;9.056;2022-12-10T03:42:08;53.78;;;24.23;;
34146;SDS011;20423;49.448;9.056;2022-12-10T03:44:35;54.90;;;23.65;;
34146;SDS011;20423;49.448;9.056;2022-12-10T03:47:04;56.08;;;23.83;;
34146;SDS011;20423;49.448;9.056;2022-12-10T03:49:33;50.67;;;24.00;;
34146;SDS011;20423;49.448;9.056;2022-12-10T03:51:59;49.90;;;22.40;;
34146;SDS011;20423;49.448;9.056;2022-12-10T03:54:24;55.50;;;25.63;;
34146;SDS011;20423;49.448;9.056;2022-12-10T03:56:50;59.40;;;25.45;;
34146;SDS011;20423;49.448;9.056;2022-12-10T03:59:16;52.65;;;23.55;;
34146;SDS011;20423;49.448;9.056;2022-12-10T04:01:44;51.13;;;23.77;;
34146;SDS011;20423;49.448;9.056;2022-12-10T04:04:09;52.58;;;24.90;;
34146;SDS011;20423;49.448;9.056;2022-12-10T04:06:37;64.97;;;27.95;;
34146;SDS011;20423;49.448;9.056;2022-12-10T04:09:04;57.83;;;26.08;;
34146;SDS011;20423;49.448;9.056;2022-12-10T04:11:46;58.10;;;26.02;;
34146;SDS011;20423;49.448;9.056;2022-12-10T04:20:57;53.13;;;25.53;;
34146;SDS011;20423;49.448;9.056;2022-12-10T04:23:57;54.67;;;25.20;;
34146;SDS011;20423;49.448;9.056;2022-12-10T04:26:44;51.13;;;24.35;;
34146;SDS011;20423;49.448;9.056;2022-12-10T04:29:24;54.60;;;24.10;;
34146;SDS011;20423;49.448;9.056;2022-12-10T04:31:51;50.80;;;24.23;;
34146;SDS011;20423;49.448;9.056;2022-12-10T04:34:18;51.08;;;23.92;;
34146;SDS011;20423;49.448;9.056;2022-12-10T04:36:43;53.72;;;25.52;;
34146;SDS011;20423;49.448;9.056;2022-12-10T04:39:09;48.00;;;22.73;;
34146;SDS011;20423;49.448;9.056;2022-12-10T04:41:37;58.67;;;23.73;;
34146;SDS011;20423;49.448;9.056;2022-12-10T04:44:04;65.85;;;27.58;;
34146;SDS011;20423;49.448;9.056;2022-12-10T04:46:30;50.03;;;23.98;;
34146;SDS011;20423;49.448;9.056;2022-12-10T04:48:56;58.70;;;26.80;;
34146;SDS011;20423;49.448;9.056;2022-12-10T04:54:34;56.22;;;24.92;;
34146;SDS011;20423;49.448;9.056;2022-12-10T04:57:00;59.75;;;26.25;;
34146;SDS011;20423;49.448;9.056;2022-12-10T04:59:25;54.30;;;25.58;;
34146;SDS011;20423;49.448;9.056;2022-12-10T05:01:52;51.78;;;23.70;;
34146;SDS011;20423;49.448;9.056;2022-12-10T05:04:17;55.63;;;26.33;;
34146;SDS011;20423;49.448;9.056;2022-12-10T05:06:44;52.60;;;24.27;;
34146;SDS011;20423;49.448;9.056;2022-12-10T05:09:12;50.45;;;24.77;;
34146;SDS011;20423;49.448;9.056;2022-12-10T05:11:38;54.38;;;24.85;;
34146;SDS011;20423;49.448;9.056;2022-12-10T05:14:05;57.58;;;26.02;;
34146;SDS011;20423;49.448;9.056;2022-12-10T05:16:40;60.60;;;26.63;;
34146;SDS011;20423;49.448;9.056;2022-12-10T05:19:06;59.60;;;26.17;;
34146;SDS011;20423;49.448;9.056;2022-12-10T05:21:33;59.83;;;26.35;;
34146;SDS011;20423;49.448;9.056;2022-12-10T05:24:17;58.53;;;27.15;;
34146;SDS011;20423;49.448;9.056;2022-12-10T05:26:43;50.17;;;24.65;;
34146;SDS011;20423;49.448;9.056;2022-12-10T05:29:10;53.50;;;24.48;;
34146;SDS011;20423;49.448;9.056;2022-12-10T05:31:37;53.22;;;25.77;;
34146;SDS011;20423;49.448;9.056;2022-12-10T05:34:03;55.55;;;23.80;;
34146;SDS011;20423;49.448;9.056;2022-12-10T05:36:29;56.83;;;25.05;;
34146;SDS011;20423;49.448;9.056;2022-12-10T05:38:56;50.30;;;24.20;;
34146;SDS011;20423;49.448;9.056;2022-12-10T05:41:25;52.05;;;25.02;;
34146;SDS011;20423;49.448;9.056;2022-12-10T05:43:53;77.78;;;31.70;;
34146;SDS011;20423;49.448;9.056;2022-12-10T05:46:38;88.18;;;33.65;;
34146;SDS011;20423;49.448;9.056;2022-12-10T05:49:04;68.05;;;27.92;;
34146;SDS011;20423;49.448;9.056;2022-12-10T05:51:31;64.28;;;26.20;;
34146;SDS011;20423;49.448;9.056;2022-12-10T05:53:59;58.75;;;26.00;;
34146;SDS011;20423;49.448;9.056;2022-12-10T05:56:26;51.72;;;24.58;;
34146;SDS011;20423;49.448;9.056;2022-12-10T05:58:53;53.65;;;25.27;;
34146;SDS011;20423;49.448;9.056;2022-12-10T06:01:23;44.83;;;22.15;;
34146;SDS011;20423;49.448;9.056;2022-12-10T06:03:51;55.33;;;26.27;;
34146;SDS011;20423;49.448;9.056;2022-12-10T06:06:24;49.03;;;23.05;;
34146;SDS011;20423;49.448;9.056;2022-12-10T06:08:54;59.53;;;24.38;;
34146;SDS011;20423;49.448;9.056;2022-12-10T06:11:26;66.05;;;26.45;;
34146;SDS011;20423;49.448;9.056;2022-12-10T06:13:53;56.00;;;25.80;;
34146;SDS011;20423;49.448;9.056;2022-12-10T06:16:20;56.40;;;25.35;;
34146;SDS011;20423;49.448;9.056;2022-12-10T06:18:46;53.20;;;25.70;;
34146;SDS011;20423;49.448;9.056;2022-12-10T06:21:13;63.15;;;28.02;;
34146;SDS011;20423;49.448;9.056;2022-12-10T06:23:55;65.38;;;27.98;;
34146;SDS011;20423;49.448;9.056;2022-12-10T06:26:22;61.40;;;28.20;;
34146;SDS011;20423;49.448;9.056;2022-12-10T06:28:49;63.15;;;26.17;;
34146;SDS011;20423;49.448;9.056;2022-12-10T06:31:16;64.40;;;27.27;;
34146;SDS011;20423;49.448;9.056;2022-12-10T06:33:43;56.92;;;27.33;;
34146;SDS011;20423;49.448;9.056;2022-12-10T06:36:10;67.07;;;28.75;;
34146;SDS011;20423;49.448;9.056;2022-12-10T06:38:37;77.15;;;32.47;;
34146;SDS011;20423;49.448;9.056;2022-12-10T06:41:04;62.88;;;29.92;;
34146;SDS011;20423;49.448;9.056;2022-12-10T06:43:31;69.93;;;31.50;;
34146;SDS011;20423;49.448;9.056;2022-12-10T06:45:56;74.70;;;29.42;;
34146;SDS011;20423;49.448;9.056;2022-12-10T06:48:22;68.75;;;30.73;;
34146;SDS011;20423;49.448;9.056;2022-12-10T06:50:48;65.55;;;29.50;;
34146;SDS011;20423;49.448;9.056;2022-12-10T06:53:14;69.85;;;29.67;;
34146;SDS011;20423;49.448;9.056;2022-12-10T06:55:40;63.55;;;30.45;;
34146;SDS011;20423;49.448;9.056;2022-12-10T06:58:06;74.57;;;32.05;;
34146;SDS011;20423;49.448;9.056;2022-12-10T07:00:31;76.55;;;32.25;;
34146;SDS011;20423;49.448;9.056;2022-12-10T07:02:57;74.00;;;30.65;;
34146;SDS011;20423;49.448;9.056;2022-12-10T07:05:23;79.22;;;34.28;;
34146;SDS011;20423;49.448;9.056;2022-12-10T07:07:50;63.72;;;28.17;;
34146;SDS011;20423;49.448;9.056;2022-12-10T07:10:15;80.57;;;30.05;;
34146;SDS011;20423;49.448;9.056;2022-12-10T07:12:42;73.10;;;29.00;;
34146;SDS011;20423;49.448;9.056;2022-12-10T07:15:08;77.45;;;31.60;;
34146;SDS011;20423;49.448;9.056;2022-12-10T07:17:34;70.40;;;31.27;;
34146;SDS011;20423;49.448;9.056;2022-12-10T07:19:59;76.10;;;31.60;;
34146;SDS011;20423;49.448;9.056;2022-12-10T07:22:25;77.45;;;31.08;;
34146;SDS011;20423;49.448;9.056;2022-12-10T07:25:06;77.28;;;31.45;;
34146;SDS011;20423;49.448;9.056;2022-12-10T07:29:58;78.55;;;30.95;;
34146;SDS011;20423;49.448;9.056;2022-12-10T07:32:23;82.97;;;33.47;;
34146;SDS011;20423;49.448;9.056;2022-12-10T07:34:49;84.65;;;32.17;;
34146;SDS011;20423;49.448;9.056;2022-12-10T07:37:15;88.30;;;34.22;;
34146;SDS011;20423;49.448;9.056;2022-12-10T07:39:40;94.03;;;33.97;;
34146;SDS011;20423;49.448;9.056;2022-12-10T07:42:08;97.95;;;35.33;;
34146;SDS011;20423;49.448;9.056;2022-12-10T07:44:37;95.55;;;35.67;;
34146;SDS011;20423;49.448;9.056;2022-12-10T07:47:14;94.22;;;35.50;;
34146;SDS011;20423;49.448;9.056;2022-12-10T07:49:39;92.00;;;33.50;;
34146;SDS011;20423;49.448;9.056;2022-12-10T07:52:05;100.07;;;35.67;;
34146;SDS011;20423;49.448;9.056;2022-12-10T07:54:31;95.47;;;33.28;;
34146;SDS011;20423;49.448;9.056;2022-12-10T07:56:57;91.80;;;34.15;;
34146;SDS011;20423;49.448;9.056;2022-12-10T07:59:23;106.72;;;35.63;;
34146;SDS011;20423;49.448;9.056;2022-12-10T08:01:48;106.20;;;37.80;;
34146;SDS011;20423;49.448;9.056;2022-12-10T08:04:14;101.07;;;36.08;;
34146;SDS011;20423;49.448;9.056;2022-12-10T08:06:40;110.10;;;36.15;;
34146;SDS011;20423;49.448;9.056;2022-12-10T08:09:06;99.32;;;34.03;;
34146;SDS011;20423;49.448;9.056;2022-12-10T08:11:31;93.60;;;35.13;;
34146;SDS011;20423;49.448;9.056;2022-12-10T08:13:57;96.22;;;34.22;;
34146;SDS011;20423;49.448;9.056;2022-12-10T08:16:24;98.05;;;34.75;;
34146;SDS011;20423;49.448;9.056;2022-12-10T08:21:54;100.28;;;35.55;;
34146;SDS011;20423;49.448;9.056;2022-12-10T08:24:20;112.18;;;39.05;;
34146;SDS011;20423;49.448;9.056;2022-12-10T08:27:01;120.22;;;40.35;;
34146;SDS011;20423;49.448;9.056;2022-12-10T08:29:34;101.65;;;37.58;;
34146;SDS011;20423;49.448;9.056;2022-12-10T08:31:59;88.90;;;31.85;;
34146;SDS011;20423;49.448;9.056;2022-12-10T08:34:25;100.97;;;37.85;;
34146;SDS011;20423;49.448;9.056;2022-12-10T08:36:51;95.07;;;34.15;;
34146;SDS011;20423;49.448;9.056;2022-12-10T08:39:18;89.55;;;32.55;;
34146;SDS011;20423;49.448;9.056;2022-12-10T08:41:50;86.82;;;33.00;;
34146;SDS011;20423;49.448;9.056;2022-12-10T08:44:15;87.18;;;32.80;;
34146;SDS011;20423;49.448;9.056;2022-12-10T08:46:56;87.70;;;33.15;;
34146;SDS011;20423;49.448;9.056;2022-12-10T08:49:22;87.82;;;32.58;;
34146;SDS011;20423;49.448;9.056;2022-12-10T08:51:48;86.85;;;31.88;;
34146;SDS011;20423;49.448;9.056;2022-12-10T08:54:13;84.78;;;29.60;;
34146;SDS011;20423;49.448;9.056;2022-12-10T08:56:39;75.70;;;29.90;;
34146;SDS011;20423;49.448;9.056;2022-12-10T08:59:05;78.75;;;30.08;;
34146;SDS011;20423;49.448;9.056;2022-12-10T09:01:31;81.15;;;30.65;;
34146;SDS011;20423;49.448;9.056;2022-12-10T09:03:57;79.63;;;30.90;;
34146;SDS011;20423;49.448;9.056;2022-12-10T09:06:24;73.20;;;28.67;;
34146;SDS011;20423;49.448;9.056;2022-12-10T09:08:50;76.30;;;29.40;;
34146;SDS011;20423;49.448;9.056;2022-12-10T09:11:25;78.85;;;30.08;;
34146;SDS011;20423;49.448;9.056;2022-12-10T09:13:53;70.85;;;29.10;;
34146;SDS011;20423;49.448;9.056;2022-12-10T09:16:20;73.80;;;29.58;;
34146;SDS011;20423;49.448;9.056;2022-12-10T09:18:46;71.05;;;27.40;;
34146;SDS011;20423;49.448;9.056;2022-12-10T09:21:14;68.38;;;28.77;;
34146;SDS011;20423;49.448;9.056;2022-12-10T09:23:42;68.53;;;27.73;;
34146;SDS011;20423;49.448;9.056;2022-12-10T09:26:13;69.53;;;26.25;;
34146;SDS011;20423;49.448;9.056;2022-12-10T09:28:42;66.03;;;25.98;;
34146;SDS011;20423;49.448;9.056;2022-12-10T09:31:09;72.53;;;27.00;;
34146;SDS011;20423;49.448;9.056;2022-12-10T09:33:36;68.75;;;27.98;;
34146;SDS011;20423;49.448;9.056;2022-12-10T09:36:03;67.85;;;27.77;;
34146;SDS011;20423;49.448;9.056;2022-12-10T09:38:35;70.90;;;28.88;;
34146;SDS011;20423;49.448;9.056;2022-12-10T09:41:13;72.30;;;28.92;;
34146;SDS011;20423;49.448;9.056;2022-12-10T09:44:05;72.47;;;29.30;;
34146;SDS011;20423;49.448;9.056;2022-12-10T09:46:52;60.97;;;25.33;;
34146;SDS011;20423;49.448;9.056;2022-12-10T09:52:01;54.58;;;24.23;;
34146;SDS011;20423;49.448;9.056;2022-12-10T09:54:30;49.95;;;22.70;;
34146;SDS011;20423;49.448;9.056;2022-12-10T09:57:03;52.25;;;23.48;;
34146;SDS011;20423;49.448;9.056;2022-12-10T10:07:38;97.65;;;36.03;;
34146;SDS011;20423;49.448;9.056;2022-12-10T10:10:23;61.15;;;25.80;;
34146;SDS011;20423;49.448;9.056;2022-12-10T10:15:57;56.53;;;24.67;;
34146;SDS011;20423;49.448;9.056;2022-12-10T10:18:39;49.58;;;22.75;;
34146;SDS011;20423;49.448;9.056;2022-12-10T10:21:28;56.10;;;24.50;;
34146;SDS011;20423;49.448;9.056;2022-12-10T10:23:59;58.10;;;23.95;;
34146;SDS011;20423;49.448;9.056;2022-12-10T10:26:25;59.75;;;24.08;;
34146;SDS011;20423;49.448;9.056;2022-12-10T10:29:05;57.67;;;24.15;;
34146;SDS011;20423;49.448;9.056;2022-12-10T10:31:33;56.28;;;22.70;;
34146;SDS011;20423;49.448;9.056;2022-12-10T10:34:20;48.67;;;23.23;;
34146;SDS011;20423;49.448;9.056;2022-12-10T10:36:47;51.53;;;22.50;;
34146;SDS011;20423;49.448;9.056;2022-12-10T10:39:26;58.63;;;23.25;;
34146;SDS011;20423;49.448;9.056;2022-12-10T10:41:54;53.17;;;22.27;;
34146;SDS011;20423;49.448;9.056;2022-12-10T10:44:22;49.15;;;22.65;;
34146;SDS011;20423;49.448;9.056;2022-12-10T10:46:51;54.13;;;22.73;;
34146;SDS011;20423;49.448;9.056;2022-12-10T10:51:46;61.45;;;25.83;;
34146;SDS011;20423;49.448;9.056;2022-12-10T10:54:17;56.95;;;24.13;;
34146;SDS011;20423;49.448;9.056;2022-12-10T10:57:44;56.38;;;23.83;;
34146;SDS011;20423;49.448;9.056;2022-12-10T11:00:06;57.85;;;24.08;;
34146;SDS011;20423;49.448;9.056;2022-12-10T11:02:43;51.47;;;21.48;;
34146;SDS011;20423;49.448;9.056;2022-12-10T11:07:59;41.55;;;18.35;;
34146;SDS011;20423;49.448;9.056;2022-12-10T11:10:29;43.47;;;19.15;;
34146;SDS011;20423;49.448;9.056;2022-12-10T11:15:31;38.80;;;17.25;;
34146;SDS011;20423;49.448;9.056;2022-12-10T11:18:21;37.30;;;16.52;;
34146;SDS011;20423;49.448;9.056;2022-12-10T11:21:06;33.92;;;15.90;;
34146;SDS011;20423;49.448;9.056;2022-12-10T11:23:42;32.92;;;15.13;;
34146;SDS011;20423;49.448;9.056;2022-12-10T11:37:15;30.55;;;13.60;;
34146;SDS011;20423;49.448;9.056;2022-12-10T11:42:37;29.88;;;13.75;;
34146;SDS011;20423;49.448;9.056;2022-12-10T11:52:55;30.95;;;13.93;;
34146;SDS011;20423;49.448;9.056;2022-12-10T11:58:29;30.58;;;13.85;;
34146;SDS011;20423;49.448;9.056;2022-12-10T12:01:17;29.05;;;13.77;;
34146;SDS011;20423;49.448;9.056;2022-12-10T12:10:05;29.85;;;12.73;;
34146;SDS011;20423;49.448;9.056;2022-12-10T12:17:43;28.90;;;12.60;;
34146;SDS011;20423;49.448;9.056;2022-12-10T12:20:14;40.00;;;14.48;;
34146;SDS011;20423;49.448;9.056;2022-12-10T12:22:58;32.65;;;14.57;;
34146;SDS011;20423;49.448;9.056;2022-12-10T12:25:47;33.58;;;14.38;;
34146;SDS011;20423;49.448;9.056;2022-12-10T12:28:39;30.67;;;13.50;;
34146;SDS011;20423;49.448;9.056;2022-12-10T12:31:27;29.75;;;13.10;;
34146;SDS011;20423;49.448;9.056;2022-12-10T12:36:46;34.75;;;14.70;;
34146;SDS011;20423;49.448;9.056;2022-12-10T12:42:18;31.05;;;13.40;;
34146;SDS011;20423;49.448;9.056;2022-12-10T12:50:03;30.33;;;12.88;;
34146;SDS011;20423;49.448;9.056;2022-12-10T12:52:36;30.58;;;14.65;;
34146;SDS011;20423;49.448;9.056;2022-12-10T13:01:37;37.88;;;15.77;;
34146;SDS011;20423;49.448;9.056;2022-12-10T13:04:09;37.88;;;15.73;;
34146;SDS011;20423;49.448;9.056;2022-12-10T13:06:37;30.10;;;13.82;;
34146;SDS011;20423;49.448;9.056;2022-12-10T13:11:38;32.50;;;14.02;;
34146;SDS011;20423;49.448;9.056;2022-12-10T13:17:24;30.38;;;13.50;;
34146;SDS011;20423;49.448;9.056;2022-12-10T13:19:50;30.30;;;13.43;;
34146;SDS011;20423;49.448;9.056;2022-12-10T13:27:41;25.73;;;12.63;;
34146;SDS011;20423;49.448;9.056;2022-12-10T13:33:03;30.25;;;13.07;;
34146;SDS011;20423;49.448;9.056;2022-12-10T13:35:58;27.27;;;12.13;;
34146;SDS011;20423;49.448;9.056;2022-12-10T13:38:26;25.35;;;12.40;;
34146;SDS011;20423;49.448;9.056;2022-12-10T13:40:57;29.45;;;13.75;;
34146;SDS011;20423;49.448;9.056;2022-12-10T13:43:57;26.63;;;12.23;;
34146;SDS011;20423;49.448;9.056;2022-12-10T13:49:17;25.13;;;11.70;;
34146;SDS011;20423;49.448;9.056;2022-12-10T13:51:53;31.30;;;12.50;;
34146;SDS011;20423;49.448;9.056;2022-12-10T14:07:59;36.42;;;15.57;;
34146;SDS011;20423;49.448;9.056;2022-12-10T14:10:29;35.25;;;14.88;;
34146;SDS011;20423;49.448;9.056;2022-12-10T14:15:26;33.15;;;13.68;;
34146;SDS011;20423;49.448;9.056;2022-12-10T14:18:00;35.03;;;15.27;;
34146;SDS011;20423;49.448;9.056;2022-12-10T14:20:53;35.30;;;16.23;;
34146;SDS011;20423;49.448;9.056;2022-12-10T14:23:24;34.47;;;15.43;;
34146;SDS011;20423;49.448;9.056;2022-12-10T14:29:20;38.05;;;15.68;;
34146;SDS011;20423;49.448;9.056;2022-12-10T14:31:49;36.75;;;15.65;;
34146;SDS011;20423;49.448;9.056;2022-12-10T14:34:17;38.13;;;15.60;;
34146;SDS011;20423;49.448;9.056;2022-12-10T14:36:47;38.05;;;16.95;;
34146;SDS011;20423;49.448;9.056;2022-12-10T14:39:19;35.40;;;16.10;;
34146;SDS011;20423;49.448;9.056;2022-12-10T14:41:57;39.67;;;17.33;;
34146;SDS011;20423;49.448;9.056;2022-12-10T14:44:26;39.72;;;17.58;;
34146;SDS011;20423;49.448;9.056;2022-12-10T14:46:57;43.65;;;17.25;;
34146;SDS011;20423;49.448;9.056;2022-12-10T14:49:28;44.35;;;18.08;;
34146;SDS011;20423;49.448;9.056;2022-12-10T14:51:55;41.25;;;18.70;;
34146;SDS011;20423;49.448;9.056;2022-12-10T14:54:32;39.05;;;17.30;;
34146;SDS011;20423;49.448;9.056;2022-12-10T14:57:01;43.10;;;18.33;;
34146;SDS011;20423;49.448;9.056;2022-12-10T14:59:31;35.45;;;17.33;;
34146;SDS011;20423;49.448;9.056;2022-12-10T15:02:15;43.40;;;18.90;;
34146;SDS011;20423;49.448;9.056;2022-12-10T15:04:49;39.53;;;19.00;;
34146;SDS011;20423;49.448;9.056;2022-12-10T15:07:19;51.05;;;21.90;;
34146;SDS011;20423;49.448;9.056;2022-12-10T15:09:49;46.75;;;20.42;;
34146;SDS011;20423;49.448;9.056;2022-12-10T15:12:20;50.45;;;21.55;;
34146;SDS011;20423;49.448;9.056;2022-12-10T15:14:57;43.50;;;19.90;;
34146;SDS011;20423;49.448;9.056;2022-12-10T15:17:39;47.15;;;20.63;;
34146;SDS011;20423;49.448;9.056;2022-12-10T15:20:21;45.08;;;20.42;;
34146;SDS011;20423;49.448;9.056;2022-12-10T15:22:50;47.28;;;18.67;;
34146;SDS011;20423;49.448;9.056;2022-12-10T15:25:24;46.80;;;19.50;;
34146;SDS011;20423;49.448;9.056;2022-12-10T15:27:55;43.22;;;18.85;;
34146;SDS011;20423;49.448;9.056;2022-12-10T15:30:23;49.83;;;21.25;;
34146;SDS011;20423;49.448;9.056;2022-12-10T15:32:57;48.38;;;21.17;;
34146;SDS011;20423;49.448;9.056;2022-12-10T15:35:23;52.90;;;20.73;;
34146;SDS011;20423;49.448;9.056;2022-12-10T15:44:06;51.33;;;22.75;;
34146;SDS011;20423;49.448;9.056;2022-12-10T15:47:01;58.63;;;23.65;;
34146;SDS011;20423;49.448;9.056;2022-12-10T15:52:51;156.82;;;53.67;;
34146;SDS011;20423;49.448;9.056;2022-12-10T15:55:16;142.55;;;53.35;;
34146;SDS011;20423;49.448;9.056;2022-12-10T15:57:43;110.45;;;42.65;;
34146;SDS011;20423;49.448;9.056;2022-12-10T16:00:23;58.92;;;26.02;;
34146;SDS011;20423;49.448;9.056;2022-12-10T16:02:54;119.47;;;42.65;;
34146;SDS011;20423;49.448;9.056;2022-12-10T16:05:28;123.25;;;45.78;;
34146;SDS011;20423;49.448;9.056;2022-12-10T16:10:43;143.40;;;53.35;;
34146;SDS011;20423;49.448;9.056;2022-12-10T16:13:13;210.75;;;79.40;;
34146;SDS011;20423;49.448;9.056;2022-12-10T16:15:54;93.43;;;38.13;;
34146;SDS011;20423;49.448;9.056;2022-12-10T16:21:13;76.47;;;32.20;;
34146;SDS011;20423;49.448;9.056;2022-12-10T16:23:39;73.65;;;32.28;;
34146;SDS011;20423;49.448;9.056;2022-12-10T16:26:12;58.13;;;24.90;;
34146;SDS011;20423;49.448;9.056;2022-12-10T16:28:43;52.05;;;23.10;;
34146;SDS011;20423;49.448;9.056;2022-12-10T16:31:10;45.15;;;21.55;;
34146;SDS011;20423;49.448;9.056;2022-12-10T16:33:40;47.33;;;22.08;;
34146;SDS011;20423;49.448;9.056;2022-12-10T16:36:06;58.15;;;24.98;;
34146;SDS011;20423;49.448;9.056;2022-12-10T16:38:32;74.03;;;28.27;;
34146;SDS011;20423;49.448;9.056;2022-12-10T16:40:58;56.45;;;24.77;;
34146;SDS011;20423;49.448;9.056;2022-12-10T16:43:25;59.55;;;25.50;;
34146;SDS011;20423;49.448;9.056;2022-12-10T16:45:53;69.00;;;28.50;;
34146;SDS011;20423;49.448;9.056;2022-12-10T16:48:20;60.05;;;24.80;;
34146;SDS011;20423;49.448;9.056;2022-12-10T16:50:46;59.28;;;25.98;;
34146;SDS011;20423;49.448;9.056;2022-12-10T16:53:16;63.88;;;26.40;;
34146;SDS011;20423;49.448;9.056;2022-12-10T16:55:54;65.35;;;27.35;;
34146;SDS011;20423;49.448;9.056;2022-12-10T16:58:21;54.45;;;25.08;;
34146;SDS011;20423;49.448;9.056;2022-12-10T17:00:48;56.03;;;24.77;;
34146;SDS011;20423;49.448;9.056;2022-12-10T17:03:17;59.40;;;25.75;;
34146;SDS011;20423;49.448;9.056;2022-12-10T17:05:48;53.57;;;23.53;;
34146;SDS011;20423;49.448;9.056;2022-12-10T17:08:18;60.38;;;26.05;;
34146;SDS011;20423;49.448;9.056;2022-12-10T17:10:45;60.30;;;25.35;;
34146;SDS011;20423;49.448;9.056;2022-12-10T17:13:31;66.20;;;27.13;;